<?xml version="1.0" encoding="UTF-8"?>
<gpx creator="WikiLoc - http://www.wikiloc.com" version="1.1" xmlns="http://www.topografix.com/GPX/1/1">
    <trk>
        <name>El Risco - 8.3km</name>
        <cmt>Pequeño recorrido circular. Preferiblemente a realizar en primavera y otoño. Ruta realizada por la Concejalía de Juventud y Deportes y la Asociación Multiaventura "El Mosquetón", ambas de Casar de Cáceres.</cmt>
        <desc>Pequeño recorrido circular. Preferiblemente a realizar en primavera y otoño. Ruta realizada por la Concejalía de Juventud y Deportes y la Asociación Multiaventura "El Mosquetón", ambas de Casar de Cáceres.</desc>
        <trkseg>
            <trkpt lat="39.437283" lon="-6.274277">
                <ele>439.459717</ele>
                <time>2010-11-21T10:09:41.000+01:00</time>
            </trkpt>
            <trkpt lat="39.437284" lon="-6.274277">
                <ele>437.056519</ele>
                <time>2010-11-21T10:09:42.000+01:00</time>
            </trkpt>
            <trkpt lat="39.437258" lon="-6.274421">
                <ele>438.498535</ele>
                <time>2010-11-21T10:10:02.000+01:00</time>
            </trkpt>
            <trkpt lat="39.437209" lon="-6.274616">
                <ele>438.498535</ele>
                <time>2010-11-21T10:10:19.000+01:00</time>
            </trkpt>
            <trkpt lat="39.437166" lon="-6.274665">
                <ele>438.017822</ele>
                <time>2010-11-21T10:10:25.000+01:00</time>
            </trkpt>
            <trkpt lat="39.437008" lon="-6.274705">
                <ele>438.017822</ele>
                <time>2010-11-21T10:10:38.000+01:00</time>
            </trkpt>
            <trkpt lat="39.436891" lon="-6.274779">
                <ele>437.537109</ele>
                <time>2010-11-21T10:10:53.000+01:00</time>
            </trkpt>
            <trkpt lat="39.436783" lon="-6.274851">
                <ele>437.056519</ele>
                <time>2010-11-21T10:11:04.000+01:00</time>
            </trkpt>
            <trkpt lat="39.436757" lon="-6.274865">
                <ele>436.575928</ele>
                <time>2010-11-21T10:11:07.000+01:00</time>
            </trkpt>
            <trkpt lat="39.436521" lon="-6.274982">
                <ele>436.575928</ele>
                <time>2010-11-21T10:11:29.000+01:00</time>
            </trkpt>
            <trkpt lat="39.436226" lon="-6.275066">
                <ele>437.056519</ele>
                <time>2010-11-21T10:11:55.000+01:00</time>
            </trkpt>
            <trkpt lat="39.435979" lon="-6.275322">
                <ele>438.017822</ele>
                <time>2010-11-21T10:12:21.000+01:00</time>
            </trkpt>
            <trkpt lat="39.435699" lon="-6.275468">
                <ele>439.459717</ele>
                <time>2010-11-21T10:12:46.000+01:00</time>
            </trkpt>
            <trkpt lat="39.435353" lon="-6.275372">
                <ele>440.421265</ele>
                <time>2010-11-21T10:13:15.000+01:00</time>
            </trkpt>
            <trkpt lat="39.435065" lon="-6.275320">
                <ele>440.421265</ele>
                <time>2010-11-21T10:13:38.000+01:00</time>
            </trkpt>
            <trkpt lat="39.434997" lon="-6.275309">
                <ele>440.421265</ele>
                <time>2010-11-21T10:13:44.000+01:00</time>
            </trkpt>
            <trkpt lat="39.434674" lon="-6.275269">
                <ele>440.901856</ele>
                <time>2010-11-21T10:14:11.000+01:00</time>
            </trkpt>
            <trkpt lat="39.434415" lon="-6.275296">
                <ele>439.940430</ele>
                <time>2010-11-21T10:14:33.000+01:00</time>
            </trkpt>
            <trkpt lat="39.434159" lon="-6.275212">
                <ele>439.940430</ele>
                <time>2010-11-21T10:14:56.000+01:00</time>
            </trkpt>
            <trkpt lat="39.434103" lon="-6.275119">
                <ele>439.940430</ele>
                <time>2010-11-21T10:15:03.000+01:00</time>
            </trkpt>
            <trkpt lat="39.433886" lon="-6.275037">
                <ele>440.421265</ele>
                <time>2010-11-21T10:15:21.000+01:00</time>
            </trkpt>
            <trkpt lat="39.433757" lon="-6.275060">
                <ele>441.863159</ele>
                <time>2010-11-21T10:15:32.000+01:00</time>
            </trkpt>
            <trkpt lat="39.433691" lon="-6.275302">
                <ele>440.901856</ele>
                <time>2010-11-21T10:15:50.000+01:00</time>
            </trkpt>
            <trkpt lat="39.433665" lon="-6.275410">
                <ele>442.824463</ele>
                <time>2010-11-21T10:15:57.000+01:00</time>
            </trkpt>
            <trkpt lat="39.433641" lon="-6.275532">
                <ele>444.747070</ele>
                <time>2010-11-21T10:16:05.000+01:00</time>
            </trkpt>
            <trkpt lat="39.433653" lon="-6.275700">
                <ele>445.227661</ele>
                <time>2010-11-21T10:16:16.000+01:00</time>
            </trkpt>
            <trkpt lat="39.433706" lon="-6.275982">
                <ele>445.227661</ele>
                <time>2010-11-21T10:16:35.000+01:00</time>
            </trkpt>
            <trkpt lat="39.433849" lon="-6.276334">
                <ele>446.189087</ele>
                <time>2010-11-21T10:17:00.000+01:00</time>
            </trkpt>
            <trkpt lat="39.433972" lon="-6.276734">
                <ele>447.630981</ele>
                <time>2010-11-21T10:17:26.000+01:00</time>
            </trkpt>
            <trkpt lat="39.433979" lon="-6.276833">
                <ele>448.592407</ele>
                <time>2010-11-21T10:17:32.000+01:00</time>
            </trkpt>
            <trkpt lat="39.433949" lon="-6.276885">
                <ele>448.111816</ele>
                <time>2010-11-21T10:17:36.000+01:00</time>
            </trkpt>
            <trkpt lat="39.433643" lon="-6.276861">
                <ele>450.515015</ele>
                <time>2010-11-21T10:17:58.000+01:00</time>
            </trkpt>
            <trkpt lat="39.433317" lon="-6.276822">
                <ele>454.360230</ele>
                <time>2010-11-21T10:18:24.000+01:00</time>
            </trkpt>
            <trkpt lat="39.433054" lon="-6.276842">
                <ele>457.244263</ele>
                <time>2010-11-21T10:18:46.000+01:00</time>
            </trkpt>
            <trkpt lat="39.432885" lon="-6.276890">
                <ele>458.205566</ele>
                <time>2010-11-21T10:19:01.000+01:00</time>
            </trkpt>
            <trkpt lat="39.432663" lon="-6.277139">
                <ele>459.647583</ele>
                <time>2010-11-21T10:19:27.000+01:00</time>
            </trkpt>
            <trkpt lat="39.432577" lon="-6.277238">
                <ele>460.608765</ele>
                <time>2010-11-21T10:19:37.000+01:00</time>
            </trkpt>
            <trkpt lat="39.432364" lon="-6.277485">
                <ele>460.608765</ele>
                <time>2010-11-21T10:20:04.000+01:00</time>
            </trkpt>
            <trkpt lat="39.432119" lon="-6.277769">
                <ele>463.012085</ele>
                <time>2010-11-21T10:20:34.000+01:00</time>
            </trkpt>
            <trkpt lat="39.431994" lon="-6.277912">
                <ele>465.896118</ele>
                <time>2010-11-21T10:20:49.000+01:00</time>
            </trkpt>
            <trkpt lat="39.431838" lon="-6.278112">
                <ele>468.299316</ele>
                <time>2010-11-21T10:21:09.000+01:00</time>
            </trkpt>
            <trkpt lat="39.431681" lon="-6.278366">
                <ele>471.183350</ele>
                <time>2010-11-21T10:21:32.000+01:00</time>
            </trkpt>
            <trkpt lat="39.431527" lon="-6.278602">
                <ele>472.625366</ele>
                <time>2010-11-21T10:21:53.000+01:00</time>
            </trkpt>
            <trkpt lat="39.431360" lon="-6.278830">
                <ele>474.547974</ele>
                <time>2010-11-21T10:22:15.000+01:00</time>
            </trkpt>
            <trkpt lat="39.431207" lon="-6.279041">
                <ele>475.989868</ele>
                <time>2010-11-21T10:22:35.000+01:00</time>
            </trkpt>
            <trkpt lat="39.431111" lon="-6.279133">
                <ele>479.354492</ele>
                <time>2010-11-21T10:22:45.000+01:00</time>
            </trkpt>
            <trkpt lat="39.430883" lon="-6.279341">
                <ele>481.757812</ele>
                <time>2010-11-21T10:23:09.000+01:00</time>
            </trkpt>
            <trkpt lat="39.430658" lon="-6.279532">
                <ele>484.161133</ele>
                <time>2010-11-21T10:23:33.000+01:00</time>
            </trkpt>
            <trkpt lat="39.430412" lon="-6.279699">
                <ele>487.045044</ele>
                <time>2010-11-21T10:23:57.000+01:00</time>
            </trkpt>
            <trkpt lat="39.430150" lon="-6.279877">
                <ele>490.409790</ele>
                <time>2010-11-21T10:24:24.000+01:00</time>
            </trkpt>
            <trkpt lat="39.429965" lon="-6.280011">
                <ele>493.293579</ele>
                <time>2010-11-21T10:24:43.000+01:00</time>
            </trkpt>
            <trkpt lat="39.429727" lon="-6.280180">
                <ele>496.658325</ele>
                <time>2010-11-21T10:25:07.000+01:00</time>
            </trkpt>
            <trkpt lat="39.429547" lon="-6.280346">
                <ele>499.542236</ele>
                <time>2010-11-21T10:25:28.000+01:00</time>
            </trkpt>
            <trkpt lat="39.429408" lon="-6.280500">
                <ele>502.906738</ele>
                <time>2010-11-21T10:25:46.000+01:00</time>
            </trkpt>
            <trkpt lat="39.429174" lon="-6.280712">
                <ele>505.790894</ele>
                <time>2010-11-21T10:26:14.000+01:00</time>
            </trkpt>
            <trkpt lat="39.428968" lon="-6.280882">
                <ele>508.674683</ele>
                <time>2010-11-21T10:26:38.000+01:00</time>
            </trkpt>
            <trkpt lat="39.428815" lon="-6.281019">
                <ele>511.558716</ele>
                <time>2010-11-21T10:26:58.000+01:00</time>
            </trkpt>
            <trkpt lat="39.428634" lon="-6.281175">
                <ele>513.962036</ele>
                <time>2010-11-21T10:27:18.000+01:00</time>
            </trkpt>
            <trkpt lat="39.428395" lon="-6.281301">
                <ele>516.845947</ele>
                <time>2010-11-21T10:27:41.000+01:00</time>
            </trkpt>
            <trkpt lat="39.428073" lon="-6.281475">
                <ele>519.729858</ele>
                <time>2010-11-21T10:28:10.000+01:00</time>
            </trkpt>
            <trkpt lat="39.427820" lon="-6.281628">
                <ele>520.691284</ele>
                <time>2010-11-21T10:28:33.000+01:00</time>
            </trkpt>
            <trkpt lat="39.427602" lon="-6.281790">
                <ele>522.613892</ele>
                <time>2010-11-21T10:28:54.000+01:00</time>
            </trkpt>
            <trkpt lat="39.427371" lon="-6.281976">
                <ele>524.536499</ele>
                <time>2010-11-21T10:29:17.000+01:00</time>
            </trkpt>
            <trkpt lat="39.427155" lon="-6.282208">
                <ele>527.420410</ele>
                <time>2010-11-21T10:29:41.000+01:00</time>
            </trkpt>
            <trkpt lat="39.427127" lon="-6.282241">
                <ele>527.901001</ele>
                <time>2010-11-21T10:29:45.000+01:00</time>
            </trkpt>
            <trkpt lat="39.427035" lon="-6.282387">
                <ele>529.343140</ele>
                <time>2010-11-21T10:29:58.000+01:00</time>
            </trkpt>
            <trkpt lat="39.426876" lon="-6.282634">
                <ele>531.746338</ele>
                <time>2010-11-21T10:30:20.000+01:00</time>
            </trkpt>
            <trkpt lat="39.426695" lon="-6.282873">
                <ele>533.188354</ele>
                <time>2010-11-21T10:30:42.000+01:00</time>
            </trkpt>
            <trkpt lat="39.426511" lon="-6.283097">
                <ele>536.072388</ele>
                <time>2010-11-21T10:31:03.000+01:00</time>
            </trkpt>
            <trkpt lat="39.426365" lon="-6.283384">
                <ele>537.514282</ele>
                <time>2010-11-21T10:31:27.000+01:00</time>
            </trkpt>
            <trkpt lat="39.426290" lon="-6.283595">
                <ele>540.878906</ele>
                <time>2010-11-21T10:31:43.000+01:00</time>
            </trkpt>
            <trkpt lat="39.426195" lon="-6.283836">
                <ele>542.801514</ele>
                <time>2010-11-21T10:32:03.000+01:00</time>
            </trkpt>
            <trkpt lat="39.426044" lon="-6.284031">
                <ele>544.724243</ele>
                <time>2010-11-21T10:32:22.000+01:00</time>
            </trkpt>
            <trkpt lat="39.425910" lon="-6.284317">
                <ele>546.166260</ele>
                <time>2010-11-21T10:32:46.000+01:00</time>
            </trkpt>
            <trkpt lat="39.425832" lon="-6.284491">
                <ele>549.050049</ele>
                <time>2010-11-21T10:33:02.000+01:00</time>
            </trkpt>
            <trkpt lat="39.425645" lon="-6.284753">
                <ele>550.011475</ele>
                <time>2010-11-21T10:33:27.000+01:00</time>
            </trkpt>
            <trkpt lat="39.425383" lon="-6.285011">
                <ele>550.972656</ele>
                <time>2010-11-21T10:33:56.000+01:00</time>
            </trkpt>
            <trkpt lat="39.425247" lon="-6.285194">
                <ele>553.856690</ele>
                <time>2010-11-21T10:34:18.000+01:00</time>
            </trkpt>
            <trkpt lat="39.425229" lon="-6.285183">
                <ele>553.856690</ele>
                <time>2010-11-21T10:34:41.000+01:00</time>
            </trkpt>
            <trkpt lat="39.425261" lon="-6.285249">
                <ele>555.779297</ele>
                <time>2010-11-21T10:35:30.000+01:00</time>
            </trkpt>
            <trkpt lat="39.425262" lon="-6.285268">
                <ele>555.779297</ele>
                <time>2010-11-21T10:35:56.000+01:00</time>
            </trkpt>
            <trkpt lat="39.425258" lon="-6.285267">
                <ele>555.298584</ele>
                <time>2010-11-21T10:36:40.000+01:00</time>
            </trkpt>
            <trkpt lat="39.425255" lon="-6.285276">
                <ele>555.779297</ele>
                <time>2010-11-21T10:37:09.000+01:00</time>
            </trkpt>
            <trkpt lat="39.425247" lon="-6.285283">
                <ele>557.221435</ele>
                <time>2010-11-21T10:47:15.000+01:00</time>
            </trkpt>
            <trkpt lat="39.425272" lon="-6.285385">
                <ele>560.105225</ele>
                <time>2010-11-21T10:47:31.000+01:00</time>
            </trkpt>
            <trkpt lat="39.425230" lon="-6.285501">
                <ele>562.028076</ele>
                <time>2010-11-21T10:47:47.000+01:00</time>
            </trkpt>
            <trkpt lat="39.425110" lon="-6.285669">
                <ele>564.911865</ele>
                <time>2010-11-21T10:48:10.000+01:00</time>
            </trkpt>
            <trkpt lat="39.425051" lon="-6.285823">
                <ele>568.276367</ele>
                <time>2010-11-21T10:48:28.000+01:00</time>
            </trkpt>
            <trkpt lat="39.425117" lon="-6.285965">
                <ele>571.160400</ele>
                <time>2010-11-21T10:48:47.000+01:00</time>
            </trkpt>
            <trkpt lat="39.425134" lon="-6.285970">
                <ele>571.640869</ele>
                <time>2010-11-21T10:48:50.000+01:00</time>
            </trkpt>
            <trkpt lat="39.425245" lon="-6.286004">
                <ele>573.563965</ele>
                <time>2010-11-21T10:49:05.000+01:00</time>
            </trkpt>
            <trkpt lat="39.425263" lon="-6.286086">
                <ele>574.044434</ele>
                <time>2010-11-21T10:49:13.000+01:00</time>
            </trkpt>
            <trkpt lat="39.425289" lon="-6.286175">
                <ele>575.967041</ele>
                <time>2010-11-21T10:49:24.000+01:00</time>
            </trkpt>
            <trkpt lat="39.425368" lon="-6.286226">
                <ele>575.005859</ele>
                <time>2010-11-21T10:49:35.000+01:00</time>
            </trkpt>
            <trkpt lat="39.425369" lon="-6.286275">
                <ele>574.525147</ele>
                <time>2010-11-21T10:49:39.000+01:00</time>
            </trkpt>
            <trkpt lat="39.425418" lon="-6.286422">
                <ele>571.640869</ele>
                <time>2010-11-21T10:49:51.000+01:00</time>
            </trkpt>
            <trkpt lat="39.425479" lon="-6.286530">
                <ele>570.679688</ele>
                <time>2010-11-21T10:50:03.000+01:00</time>
            </trkpt>
            <trkpt lat="39.425486" lon="-6.286569">
                <ele>569.718506</ele>
                <time>2010-11-21T10:50:06.000+01:00</time>
            </trkpt>
            <trkpt lat="39.425471" lon="-6.286685">
                <ele>567.315185</ele>
                <time>2010-11-21T10:50:18.000+01:00</time>
            </trkpt>
            <trkpt lat="39.425469" lon="-6.286712">
                <ele>565.873291</ele>
                <time>2010-11-21T10:50:21.000+01:00</time>
            </trkpt>
            <trkpt lat="39.425474" lon="-6.286851">
                <ele>564.431152</ele>
                <time>2010-11-21T10:50:33.000+01:00</time>
            </trkpt>
            <trkpt lat="39.425436" lon="-6.287000">
                <ele>561.547363</ele>
                <time>2010-11-21T10:50:46.000+01:00</time>
            </trkpt>
            <trkpt lat="39.425417" lon="-6.287089">
                <ele>559.624756</ele>
                <time>2010-11-21T10:50:52.000+01:00</time>
            </trkpt>
            <trkpt lat="39.425398" lon="-6.287225">
                <ele>557.221435</ele>
                <time>2010-11-21T10:51:03.000+01:00</time>
            </trkpt>
            <trkpt lat="39.425389" lon="-6.287298">
                <ele>555.779297</ele>
                <time>2010-11-21T10:51:09.000+01:00</time>
            </trkpt>
            <trkpt lat="39.425370" lon="-6.287446">
                <ele>551.934082</ele>
                <time>2010-11-21T10:51:20.000+01:00</time>
            </trkpt>
            <trkpt lat="39.425350" lon="-6.287644">
                <ele>548.569336</ele>
                <time>2010-11-21T10:51:35.000+01:00</time>
            </trkpt>
            <trkpt lat="39.425329" lon="-6.287823">
                <ele>545.204834</ele>
                <time>2010-11-21T10:51:49.000+01:00</time>
            </trkpt>
            <trkpt lat="39.425312" lon="-6.288013">
                <ele>541.840210</ele>
                <time>2010-11-21T10:52:04.000+01:00</time>
            </trkpt>
            <trkpt lat="39.425302" lon="-6.288113">
                <ele>538.956299</ele>
                <time>2010-11-21T10:52:11.000+01:00</time>
            </trkpt>
            <trkpt lat="39.425276" lon="-6.288258">
                <ele>536.072388</ele>
                <time>2010-11-21T10:52:22.000+01:00</time>
            </trkpt>
            <trkpt lat="39.425266" lon="-6.288450">
                <ele>533.188354</ele>
                <time>2010-11-21T10:52:36.000+01:00</time>
            </trkpt>
            <trkpt lat="39.425252" lon="-6.288623">
                <ele>529.823731</ele>
                <time>2010-11-21T10:52:50.000+01:00</time>
            </trkpt>
            <trkpt lat="39.425247" lon="-6.288774">
                <ele>526.459106</ele>
                <time>2010-11-21T10:53:02.000+01:00</time>
            </trkpt>
            <trkpt lat="39.425224" lon="-6.288944">
                <ele>523.094604</ele>
                <time>2010-11-21T10:53:15.000+01:00</time>
            </trkpt>
            <trkpt lat="39.425227" lon="-6.289117">
                <ele>520.210571</ele>
                <time>2010-11-21T10:53:27.000+01:00</time>
            </trkpt>
            <trkpt lat="39.425247" lon="-6.289298">
                <ele>516.845947</ele>
                <time>2010-11-21T10:53:40.000+01:00</time>
            </trkpt>
            <trkpt lat="39.425392" lon="-6.289429">
                <ele>515.404053</ele>
                <time>2010-11-21T10:53:54.000+01:00</time>
            </trkpt>
            <trkpt lat="39.425660" lon="-6.289592">
                <ele>514.923340</ele>
                <time>2010-11-21T10:54:19.000+01:00</time>
            </trkpt>
            <trkpt lat="39.425891" lon="-6.289817">
                <ele>514.923340</ele>
                <time>2010-11-21T10:54:43.000+01:00</time>
            </trkpt>
            <trkpt lat="39.425997" lon="-6.289901">
                <ele>515.884644</ele>
                <time>2010-11-21T10:54:54.000+01:00</time>
            </trkpt>
            <trkpt lat="39.426045" lon="-6.289991">
                <ele>515.884644</ele>
                <time>2010-11-21T10:55:07.000+01:00</time>
            </trkpt>
            <trkpt lat="39.426110" lon="-6.290071">
                <ele>515.884644</ele>
                <time>2010-11-21T10:55:20.000+01:00</time>
            </trkpt>
            <trkpt lat="39.426164" lon="-6.290101">
                <ele>516.365234</ele>
                <time>2010-11-21T10:55:32.000+01:00</time>
            </trkpt>
            <trkpt lat="39.426326" lon="-6.290336">
                <ele>514.923340</ele>
                <time>2010-11-21T10:55:53.000+01:00</time>
            </trkpt>
            <trkpt lat="39.426568" lon="-6.290468">
                <ele>514.923340</ele>
                <time>2010-11-21T10:56:15.000+01:00</time>
            </trkpt>
            <trkpt lat="39.426871" lon="-6.290574">
                <ele>516.845947</ele>
                <time>2010-11-21T10:56:42.000+01:00</time>
            </trkpt>
            <trkpt lat="39.427111" lon="-6.290560">
                <ele>519.729858</ele>
                <time>2010-11-21T10:57:04.000+01:00</time>
            </trkpt>
            <trkpt lat="39.427170" lon="-6.290544">
                <ele>521.171997</ele>
                <time>2010-11-21T10:57:10.000+01:00</time>
            </trkpt>
            <trkpt lat="39.427394" lon="-6.290578">
                <ele>523.094604</ele>
                <time>2010-11-21T10:57:32.000+01:00</time>
            </trkpt>
            <trkpt lat="39.427497" lon="-6.290610">
                <ele>524.536499</ele>
                <time>2010-11-21T10:57:46.000+01:00</time>
            </trkpt>
            <trkpt lat="39.427707" lon="-6.290678">
                <ele>525.978394</ele>
                <time>2010-11-21T10:58:08.000+01:00</time>
            </trkpt>
            <trkpt lat="39.427910" lon="-6.290724">
                <ele>527.901001</ele>
                <time>2010-11-21T10:58:29.000+01:00</time>
            </trkpt>
            <trkpt lat="39.428135" lon="-6.290745">
                <ele>530.304443</ele>
                <time>2010-11-21T10:58:51.000+01:00</time>
            </trkpt>
            <trkpt lat="39.428410" lon="-6.290804">
                <ele>532.227051</ele>
                <time>2010-11-21T10:59:15.000+01:00</time>
            </trkpt>
            <trkpt lat="39.428719" lon="-6.290877">
                <ele>533.668945</ele>
                <time>2010-11-21T10:59:43.000+01:00</time>
            </trkpt>
            <trkpt lat="39.428973" lon="-6.291061">
                <ele>535.110962</ele>
                <time>2010-11-21T11:00:07.000+01:00</time>
            </trkpt>
            <trkpt lat="39.429249" lon="-6.291196">
                <ele>536.072388</ele>
                <time>2010-11-21T11:00:32.000+01:00</time>
            </trkpt>
            <trkpt lat="39.429413" lon="-6.291270">
                <ele>537.514282</ele>
                <time>2010-11-21T11:00:47.000+01:00</time>
            </trkpt>
            <trkpt lat="39.429678" lon="-6.291435">
                <ele>538.475708</ele>
                <time>2010-11-21T11:01:12.000+01:00</time>
            </trkpt>
            <trkpt lat="39.429959" lon="-6.291507">
                <ele>539.436890</ele>
                <time>2010-11-21T11:01:37.000+01:00</time>
            </trkpt>
            <trkpt lat="39.430237" lon="-6.291610">
                <ele>538.956299</ele>
                <time>2010-11-21T11:02:01.000+01:00</time>
            </trkpt>
            <trkpt lat="39.430451" lon="-6.291727">
                <ele>540.878906</ele>
                <time>2010-11-21T11:02:20.000+01:00</time>
            </trkpt>
            <trkpt lat="39.430725" lon="-6.291980">
                <ele>539.917603</ele>
                <time>2010-11-21T11:02:47.000+01:00</time>
            </trkpt>
            <trkpt lat="39.431037" lon="-6.292143">
                <ele>538.956299</ele>
                <time>2010-11-21T11:03:14.000+01:00</time>
            </trkpt>
            <trkpt lat="39.431318" lon="-6.292186">
                <ele>538.475708</ele>
                <time>2010-11-21T11:03:38.000+01:00</time>
            </trkpt>
            <trkpt lat="39.431595" lon="-6.292310">
                <ele>537.514282</ele>
                <time>2010-11-21T11:04:02.000+01:00</time>
            </trkpt>
            <trkpt lat="39.431994" lon="-6.292479">
                <ele>537.514282</ele>
                <time>2010-11-21T11:04:36.000+01:00</time>
            </trkpt>
            <trkpt lat="39.432312" lon="-6.292609">
                <ele>537.514282</ele>
                <time>2010-11-21T11:05:04.000+01:00</time>
            </trkpt>
            <trkpt lat="39.432630" lon="-6.292755">
                <ele>535.591553</ele>
                <time>2010-11-21T11:05:31.000+01:00</time>
            </trkpt>
            <trkpt lat="39.432930" lon="-6.292898">
                <ele>532.227051</ele>
                <time>2010-11-21T11:05:57.000+01:00</time>
            </trkpt>
            <trkpt lat="39.433228" lon="-6.293135">
                <ele>531.265747</ele>
                <time>2010-11-21T11:06:24.000+01:00</time>
            </trkpt>
            <trkpt lat="39.433536" lon="-6.293408">
                <ele>530.785156</ele>
                <time>2010-11-21T11:06:54.000+01:00</time>
            </trkpt>
            <trkpt lat="39.433833" lon="-6.293553">
                <ele>529.343140</ele>
                <time>2010-11-21T11:07:20.000+01:00</time>
            </trkpt>
            <trkpt lat="39.434121" lon="-6.293639">
                <ele>530.304443</ele>
                <time>2010-11-21T11:07:45.000+01:00</time>
            </trkpt>
            <trkpt lat="39.434420" lon="-6.293740">
                <ele>531.265747</ele>
                <time>2010-11-21T11:08:10.000+01:00</time>
            </trkpt>
            <trkpt lat="39.434733" lon="-6.293800">
                <ele>530.785156</ele>
                <time>2010-11-21T11:08:36.000+01:00</time>
            </trkpt>
            <trkpt lat="39.435136" lon="-6.293772">
                <ele>531.265747</ele>
                <time>2010-11-21T11:09:09.000+01:00</time>
            </trkpt>
            <trkpt lat="39.435507" lon="-6.293709">
                <ele>531.746338</ele>
                <time>2010-11-21T11:09:40.000+01:00</time>
            </trkpt>
            <trkpt lat="39.435806" lon="-6.293673">
                <ele>532.227051</ele>
                <time>2010-11-21T11:10:05.000+01:00</time>
            </trkpt>
            <trkpt lat="39.436146" lon="-6.293671">
                <ele>530.785156</ele>
                <time>2010-11-21T11:10:32.000+01:00</time>
            </trkpt>
            <trkpt lat="39.436437" lon="-6.293595">
                <ele>531.746338</ele>
                <time>2010-11-21T11:10:56.000+01:00</time>
            </trkpt>
            <trkpt lat="39.436821" lon="-6.293604">
                <ele>530.304443</ele>
                <time>2010-11-21T11:11:26.000+01:00</time>
            </trkpt>
            <trkpt lat="39.437150" lon="-6.293600">
                <ele>529.823731</ele>
                <time>2010-11-21T11:11:53.000+01:00</time>
            </trkpt>
            <trkpt lat="39.437472" lon="-6.293553">
                <ele>528.862549</ele>
                <time>2010-11-21T11:12:20.000+01:00</time>
            </trkpt>
            <trkpt lat="39.437701" lon="-6.293408">
                <ele>531.746338</ele>
                <time>2010-11-21T11:12:42.000+01:00</time>
            </trkpt>
            <trkpt lat="39.438017" lon="-6.293222">
                <ele>531.265747</ele>
                <time>2010-11-21T11:13:11.000+01:00</time>
            </trkpt>
            <trkpt lat="39.438221" lon="-6.293192">
                <ele>529.823731</ele>
                <time>2010-11-21T11:13:33.000+01:00</time>
            </trkpt>
            <trkpt lat="39.438253" lon="-6.293291">
                <ele>529.823731</ele>
                <time>2010-11-21T11:13:49.000+01:00</time>
            </trkpt>
            <trkpt lat="39.438253" lon="-6.293295">
                <ele>528.862549</ele>
                <time>2010-11-21T11:14:10.000+01:00</time>
            </trkpt>
            <trkpt lat="39.438265" lon="-6.293387">
                <ele>528.862549</ele>
                <time>2010-11-21T11:14:21.000+01:00</time>
            </trkpt>
            <trkpt lat="39.438256" lon="-6.293427">
                <ele>528.862549</ele>
                <time>2010-11-21T11:14:35.000+01:00</time>
            </trkpt>
            <trkpt lat="39.438254" lon="-6.293345">
                <ele>529.343140</ele>
                <time>2010-11-21T11:14:53.000+01:00</time>
            </trkpt>
            <trkpt lat="39.438274" lon="-6.293331">
                <ele>528.862549</ele>
                <time>2010-11-21T11:15:07.000+01:00</time>
            </trkpt>
            <trkpt lat="39.438250" lon="-6.293271">
                <ele>528.862549</ele>
                <time>2010-11-21T11:15:24.000+01:00</time>
            </trkpt>
            <trkpt lat="39.438272" lon="-6.293277">
                <ele>528.862549</ele>
                <time>2010-11-21T11:15:42.000+01:00</time>
            </trkpt>
            <trkpt lat="39.438276" lon="-6.293257">
                <ele>528.862549</ele>
                <time>2010-11-21T11:15:55.000+01:00</time>
            </trkpt>
            <trkpt lat="39.438276" lon="-6.293238">
                <ele>527.420410</ele>
                <time>2010-11-21T11:16:56.000+01:00</time>
            </trkpt>
            <trkpt lat="39.438265" lon="-6.293144">
                <ele>529.343140</ele>
                <time>2010-11-21T11:17:16.000+01:00</time>
            </trkpt>
            <trkpt lat="39.438271" lon="-6.293135">
                <ele>530.304443</ele>
                <time>2010-11-21T11:17:27.000+01:00</time>
            </trkpt>
            <trkpt lat="39.438280" lon="-6.293141">
                <ele>529.343140</ele>
                <time>2010-11-21T11:17:55.000+01:00</time>
            </trkpt>
            <trkpt lat="39.438279" lon="-6.293137">
                <ele>529.343140</ele>
                <time>2010-11-21T11:18:22.000+01:00</time>
            </trkpt>
            <trkpt lat="39.438272" lon="-6.293141">
                <ele>529.343140</ele>
                <time>2010-11-21T11:18:44.000+01:00</time>
            </trkpt>
            <trkpt lat="39.438265" lon="-6.293143">
                <ele>529.343140</ele>
                <time>2010-11-21T11:19:45.000+01:00</time>
            </trkpt>
            <trkpt lat="39.438267" lon="-6.293138">
                <ele>528.381836</ele>
                <time>2010-11-21T11:20:52.000+01:00</time>
            </trkpt>
            <trkpt lat="39.438293" lon="-6.292847">
                <ele>528.862549</ele>
                <time>2010-11-21T11:21:13.000+01:00</time>
            </trkpt>
            <trkpt lat="39.438344" lon="-6.292391">
                <ele>529.823731</ele>
                <time>2010-11-21T11:21:44.000+01:00</time>
            </trkpt>
            <trkpt lat="39.438371" lon="-6.291938">
                <ele>530.785156</ele>
                <time>2010-11-21T11:22:13.000+01:00</time>
            </trkpt>
            <trkpt lat="39.438264" lon="-6.291440">
                <ele>532.707764</ele>
                <time>2010-11-21T11:22:46.000+01:00</time>
            </trkpt>
            <trkpt lat="39.438169" lon="-6.291008">
                <ele>535.110962</ele>
                <time>2010-11-21T11:23:15.000+01:00</time>
            </trkpt>
            <trkpt lat="39.438134" lon="-6.290873">
                <ele>535.591553</ele>
                <time>2010-11-21T11:23:24.000+01:00</time>
            </trkpt>
            <trkpt lat="39.438088" lon="-6.290570">
                <ele>536.553101</ele>
                <time>2010-11-21T11:23:44.000+01:00</time>
            </trkpt>
            <trkpt lat="39.438035" lon="-6.290363">
                <ele>537.514282</ele>
                <time>2010-11-21T11:23:57.000+01:00</time>
            </trkpt>
            <trkpt lat="39.437925" lon="-6.289849">
                <ele>537.994995</ele>
                <time>2010-11-21T11:24:29.000+01:00</time>
            </trkpt>
            <trkpt lat="39.437933" lon="-6.289273">
                <ele>538.475708</ele>
                <time>2010-11-21T11:25:03.000+01:00</time>
            </trkpt>
            <trkpt lat="39.437913" lon="-6.288724">
                <ele>541.840210</ele>
                <time>2010-11-21T11:25:37.000+01:00</time>
            </trkpt>
            <trkpt lat="39.437912" lon="-6.288707">
                <ele>542.320923</ele>
                <time>2010-11-21T11:25:38.000+01:00</time>
            </trkpt>
            <trkpt lat="39.438015" lon="-6.288197">
                <ele>545.204834</ele>
                <time>2010-11-21T11:26:10.000+01:00</time>
            </trkpt>
            <trkpt lat="39.437987" lon="-6.287854">
                <ele>547.608154</ele>
                <time>2010-11-21T11:26:33.000+01:00</time>
            </trkpt>
            <trkpt lat="39.437976" lon="-6.287833">
                <ele>549.050049</ele>
                <time>2010-11-21T11:26:35.000+01:00</time>
            </trkpt>
            <trkpt lat="39.437941" lon="-6.287824">
                <ele>549.530762</ele>
                <time>2010-11-21T11:26:39.000+01:00</time>
            </trkpt>
            <trkpt lat="39.437609" lon="-6.288121">
                <ele>551.453369</ele>
                <time>2010-11-21T11:27:12.000+01:00</time>
            </trkpt>
            <trkpt lat="39.437388" lon="-6.288297">
                <ele>554.337402</ele>
                <time>2010-11-21T11:27:34.000+01:00</time>
            </trkpt>
            <trkpt lat="39.437243" lon="-6.288402">
                <ele>557.221435</ele>
                <time>2010-11-21T11:27:49.000+01:00</time>
            </trkpt>
            <trkpt lat="39.437060" lon="-6.288453">
                <ele>561.066650</ele>
                <time>2010-11-21T11:28:07.000+01:00</time>
            </trkpt>
            <trkpt lat="39.436909" lon="-6.288379">
                <ele>564.431152</ele>
                <time>2010-11-21T11:28:22.000+01:00</time>
            </trkpt>
            <trkpt lat="39.436658" lon="-6.288207">
                <ele>567.315185</ele>
                <time>2010-11-21T11:28:47.000+01:00</time>
            </trkpt>
            <trkpt lat="39.436459" lon="-6.288077">
                <ele>571.160400</ele>
                <time>2010-11-21T11:29:07.000+01:00</time>
            </trkpt>
            <trkpt lat="39.436281" lon="-6.287967">
                <ele>574.044434</ele>
                <time>2010-11-21T11:29:25.000+01:00</time>
            </trkpt>
            <trkpt lat="39.436088" lon="-6.287932">
                <ele>577.409180</ele>
                <time>2010-11-21T11:29:43.000+01:00</time>
            </trkpt>
            <trkpt lat="39.436067" lon="-6.287944">
                <ele>577.889648</ele>
                <time>2010-11-21T11:29:45.000+01:00</time>
            </trkpt>
            <trkpt lat="39.436054" lon="-6.288260">
                <ele>582.215576</ele>
                <time>2010-11-21T11:30:08.000+01:00</time>
            </trkpt>
            <trkpt lat="39.436085" lon="-6.288606">
                <ele>585.099609</ele>
                <time>2010-11-21T11:30:32.000+01:00</time>
            </trkpt>
            <trkpt lat="39.436114" lon="-6.289043">
                <ele>587.502685</ele>
                <time>2010-11-21T11:31:01.000+01:00</time>
            </trkpt>
            <trkpt lat="39.436149" lon="-6.289483">
                <ele>589.425537</ele>
                <time>2010-11-21T11:31:29.000+01:00</time>
            </trkpt>
            <trkpt lat="39.436169" lon="-6.289774">
                <ele>589.906250</ele>
                <time>2010-11-21T11:31:48.000+01:00</time>
            </trkpt>
            <trkpt lat="39.436206" lon="-6.290235">
                <ele>592.309570</ele>
                <time>2010-11-21T11:32:17.000+01:00</time>
            </trkpt>
            <trkpt lat="39.436216" lon="-6.290397">
                <ele>592.309570</ele>
                <time>2010-11-21T11:32:27.000+01:00</time>
            </trkpt>
            <trkpt lat="39.436192" lon="-6.290482">
                <ele>593.751465</ele>
                <time>2010-11-21T11:32:33.000+01:00</time>
            </trkpt>
            <trkpt lat="39.436101" lon="-6.290725">
                <ele>596.635498</ele>
                <time>2010-11-21T11:32:52.000+01:00</time>
            </trkpt>
            <trkpt lat="39.435950" lon="-6.290690">
                <ele>599.038574</ele>
                <time>2010-11-21T11:33:05.000+01:00</time>
            </trkpt>
            <trkpt lat="39.435896" lon="-6.290664">
                <ele>598.557861</ele>
                <time>2010-11-21T11:33:10.000+01:00</time>
            </trkpt>
            <trkpt lat="39.435870" lon="-6.290630">
                <ele>600.000000</ele>
                <time>2010-11-21T11:33:13.000+01:00</time>
            </trkpt>
            <trkpt lat="39.435744" lon="-6.290447">
                <ele>602.883789</ele>
                <time>2010-11-21T11:33:30.000+01:00</time>
            </trkpt>
            <trkpt lat="39.435640" lon="-6.290293">
                <ele>604.806641</ele>
                <time>2010-11-21T11:33:45.000+01:00</time>
            </trkpt>
            <trkpt lat="39.435478" lon="-6.290080">
                <ele>608.171387</ele>
                <time>2010-11-21T11:34:07.000+01:00</time>
            </trkpt>
            <trkpt lat="39.435344" lon="-6.289897">
                <ele>611.055176</ele>
                <time>2010-11-21T11:34:26.000+01:00</time>
            </trkpt>
            <trkpt lat="39.435239" lon="-6.289737">
                <ele>614.419678</ele>
                <time>2010-11-21T11:34:42.000+01:00</time>
            </trkpt>
            <trkpt lat="39.435141" lon="-6.289723">
                <ele>616.822998</ele>
                <time>2010-11-21T11:34:54.000+01:00</time>
            </trkpt>
            <trkpt lat="39.435068" lon="-6.289801">
                <ele>619.707031</ele>
                <time>2010-11-21T11:35:04.000+01:00</time>
            </trkpt>
            <trkpt lat="39.434931" lon="-6.289962">
                <ele>623.071777</ele>
                <time>2010-11-21T11:35:22.000+01:00</time>
            </trkpt>
            <trkpt lat="39.434750" lon="-6.289797">
                <ele>625.474853</ele>
                <time>2010-11-21T11:35:43.000+01:00</time>
            </trkpt>
            <trkpt lat="39.434607" lon="-6.289412">
                <ele>627.878174</ele>
                <time>2010-11-21T11:36:10.000+01:00</time>
            </trkpt>
            <trkpt lat="39.434605" lon="-6.289401">
                <ele>628.358887</ele>
                <time>2010-11-21T11:36:11.000+01:00</time>
            </trkpt>
            <trkpt lat="39.434608" lon="-6.289351">
                <ele>628.358887</ele>
                <time>2010-11-21T11:36:15.000+01:00</time>
            </trkpt>
            <trkpt lat="39.434494" lon="-6.289085">
                <ele>627.397705</ele>
                <time>2010-11-21T11:36:35.000+01:00</time>
            </trkpt>
            <trkpt lat="39.434255" lon="-6.288714">
                <ele>626.436279</ele>
                <time>2010-11-21T11:37:05.000+01:00</time>
            </trkpt>
            <trkpt lat="39.433961" lon="-6.288506">
                <ele>625.955566</ele>
                <time>2010-11-21T11:37:32.000+01:00</time>
            </trkpt>
            <trkpt lat="39.433937" lon="-6.288492">
                <ele>626.916992</ele>
                <time>2010-11-21T11:37:34.000+01:00</time>
            </trkpt>
            <trkpt lat="39.433774" lon="-6.288405">
                <ele>628.358887</ele>
                <time>2010-11-21T11:37:48.000+01:00</time>
            </trkpt>
            <trkpt lat="39.433520" lon="-6.288258">
                <ele>631.723389</ele>
                <time>2010-11-21T11:38:10.000+01:00</time>
            </trkpt>
            <trkpt lat="39.433296" lon="-6.288061">
                <ele>634.607422</ele>
                <time>2010-11-21T11:38:33.000+01:00</time>
            </trkpt>
            <trkpt lat="39.433172" lon="-6.287857">
                <ele>637.491455</ele>
                <time>2010-11-21T11:38:49.000+01:00</time>
            </trkpt>
            <trkpt lat="39.432924" lon="-6.287802">
                <ele>641.336670</ele>
                <time>2010-11-21T11:39:11.000+01:00</time>
            </trkpt>
            <trkpt lat="39.432876" lon="-6.287802">
                <ele>638.933594</ele>
                <time>2010-11-21T11:39:15.000+01:00</time>
            </trkpt>
            <trkpt lat="39.432726" lon="-6.287740">
                <ele>642.778809</ele>
                <time>2010-11-21T11:39:29.000+01:00</time>
            </trkpt>
            <trkpt lat="39.432717" lon="-6.287732">
                <ele>642.298096</ele>
                <time>2010-11-21T11:39:30.000+01:00</time>
            </trkpt>
            <trkpt lat="39.432633" lon="-6.287667">
                <ele>643.739990</ele>
                <time>2010-11-21T11:39:39.000+01:00</time>
            </trkpt>
            <trkpt lat="39.432547" lon="-6.287605">
                <ele>645.662598</ele>
                <time>2010-11-21T11:39:50.000+01:00</time>
            </trkpt>
            <trkpt lat="39.432399" lon="-6.287407">
                <ele>648.546387</ele>
                <time>2010-11-21T11:40:10.000+01:00</time>
            </trkpt>
            <trkpt lat="39.432225" lon="-6.287186">
                <ele>651.430420</ele>
                <time>2010-11-21T11:40:33.000+01:00</time>
            </trkpt>
            <trkpt lat="39.432061" lon="-6.287008">
                <ele>653.353272</ele>
                <time>2010-11-21T11:40:53.000+01:00</time>
            </trkpt>
            <trkpt lat="39.431834" lon="-6.286949">
                <ele>653.353272</ele>
                <time>2010-11-21T11:41:15.000+01:00</time>
            </trkpt>
            <trkpt lat="39.431590" lon="-6.286887">
                <ele>656.237060</ele>
                <time>2010-11-21T11:41:38.000+01:00</time>
            </trkpt>
            <trkpt lat="39.431559" lon="-6.286887">
                <ele>657.679199</ele>
                <time>2010-11-21T11:41:41.000+01:00</time>
            </trkpt>
            <trkpt lat="39.431491" lon="-6.286910">
                <ele>658.159912</ele>
                <time>2010-11-21T11:41:53.000+01:00</time>
            </trkpt>
            <trkpt lat="39.431503" lon="-6.286965">
                <ele>660.562988</ele>
                <time>2010-11-21T11:42:00.000+01:00</time>
            </trkpt>
            <trkpt lat="39.431481" lon="-6.286978">
                <ele>663.447022</ele>
                <time>2010-11-21T11:42:06.000+01:00</time>
            </trkpt>
            <trkpt lat="39.431443" lon="-6.286936">
                <ele>666.330810</ele>
                <time>2010-11-21T11:42:12.000+01:00</time>
            </trkpt>
            <trkpt lat="39.431396" lon="-6.286903">
                <ele>667.292236</ele>
                <time>2010-11-21T11:42:21.000+01:00</time>
            </trkpt>
            <trkpt lat="39.431379" lon="-6.286847">
                <ele>669.695801</ele>
                <time>2010-11-21T11:42:29.000+01:00</time>
            </trkpt>
            <trkpt lat="39.431357" lon="-6.286838">
                <ele>668.253662</ele>
                <time>2010-11-21T11:42:33.000+01:00</time>
            </trkpt>
            <trkpt lat="39.431331" lon="-6.286856">
                <ele>670.656982</ele>
                <time>2010-11-21T11:42:45.000+01:00</time>
            </trkpt>
            <trkpt lat="39.431340" lon="-6.286876">
                <ele>670.176269</ele>
                <time>2010-11-21T11:42:59.000+01:00</time>
            </trkpt>
            <trkpt lat="39.431337" lon="-6.286874">
                <ele>671.137695</ele>
                <time>2010-11-21T11:43:01.000+01:00</time>
            </trkpt>
            <trkpt lat="39.431340" lon="-6.286868">
                <ele>671.618164</ele>
                <time>2010-11-21T11:43:21.000+01:00</time>
            </trkpt>
            <trkpt lat="39.431318" lon="-6.286868">
                <ele>673.541016</ele>
                <time>2010-11-21T11:43:37.000+01:00</time>
            </trkpt>
            <trkpt lat="39.431323" lon="-6.286873">
                <ele>672.579590</ele>
                <time>2010-11-21T11:43:39.000+01:00</time>
            </trkpt>
            <trkpt lat="39.431335" lon="-6.286881">
                <ele>673.541016</ele>
                <time>2010-11-21T11:43:55.000+01:00</time>
            </trkpt>
            <trkpt lat="39.431337" lon="-6.286878">
                <ele>672.098877</ele>
                <time>2010-11-21T11:45:04.000+01:00</time>
            </trkpt>
            <trkpt lat="39.431336" lon="-6.286875">
                <ele>671.137695</ele>
                <time>2010-11-21T11:45:06.000+01:00</time>
            </trkpt>
            <trkpt lat="39.431333" lon="-6.286870">
                <ele>672.098877</ele>
                <time>2010-11-21T11:45:12.000+01:00</time>
            </trkpt>
            <trkpt lat="39.431337" lon="-6.286877">
                <ele>671.618164</ele>
                <time>2010-11-21T11:45:31.000+01:00</time>
            </trkpt>
            <trkpt lat="39.431337" lon="-6.286875">
                <ele>673.541016</ele>
                <time>2010-11-21T11:45:34.000+01:00</time>
            </trkpt>
            <trkpt lat="39.431339" lon="-6.286869">
                <ele>673.060303</ele>
                <time>2010-11-21T11:45:46.000+01:00</time>
            </trkpt>
            <trkpt lat="39.431340" lon="-6.286870">
                <ele>675.944092</ele>
                <time>2010-11-21T11:46:17.000+01:00</time>
            </trkpt>
            <trkpt lat="39.431340" lon="-6.286870">
                <ele>676.424805</ele>
                <time>2010-11-21T11:46:18.000+01:00</time>
            </trkpt>
            <trkpt lat="39.431340" lon="-6.286870">
                <ele>673.060303</ele>
                <time>2010-11-21T11:46:22.000+01:00</time>
            </trkpt>
            <trkpt lat="39.431325" lon="-6.286868">
                <ele>671.618164</ele>
                <time>2010-11-21T11:46:30.000+01:00</time>
            </trkpt>
            <trkpt lat="39.431320" lon="-6.286870">
                <ele>673.541016</ele>
                <time>2010-11-21T11:46:33.000+01:00</time>
            </trkpt>
            <trkpt lat="39.431313" lon="-6.286833">
                <ele>673.060303</ele>
                <time>2010-11-21T11:46:51.000+01:00</time>
            </trkpt>
            <trkpt lat="39.431312" lon="-6.286833">
                <ele>673.060303</ele>
                <time>2010-11-21T11:47:26.000+01:00</time>
            </trkpt>
            <trkpt lat="39.431309" lon="-6.286854">
                <ele>670.176269</ele>
                <time>2010-11-21T11:48:40.000+01:00</time>
            </trkpt>
            <trkpt lat="39.431314" lon="-6.286866">
                <ele>670.656982</ele>
                <time>2010-11-21T11:48:57.000+01:00</time>
            </trkpt>
            <trkpt lat="39.431311" lon="-6.286864">
                <ele>674.502197</ele>
                <time>2010-11-21T11:49:05.000+01:00</time>
            </trkpt>
            <trkpt lat="39.431310" lon="-6.286866">
                <ele>671.618164</ele>
                <time>2010-11-21T11:49:09.000+01:00</time>
            </trkpt>
            <trkpt lat="39.431310" lon="-6.286867">
                <ele>669.695801</ele>
                <time>2010-11-21T11:49:12.000+01:00</time>
            </trkpt>
            <trkpt lat="39.431312" lon="-6.286864">
                <ele>672.098877</ele>
                <time>2010-11-21T11:49:16.000+01:00</time>
            </trkpt>
            <trkpt lat="39.431313" lon="-6.286857">
                <ele>670.656982</ele>
                <time>2010-11-21T11:49:34.000+01:00</time>
            </trkpt>
            <trkpt lat="39.431317" lon="-6.286857">
                <ele>670.176269</ele>
                <time>2010-11-21T11:49:36.000+01:00</time>
            </trkpt>
            <trkpt lat="39.431328" lon="-6.286851">
                <ele>671.618164</ele>
                <time>2010-11-21T11:50:11.000+01:00</time>
            </trkpt>
            <trkpt lat="39.431343" lon="-6.286866">
                <ele>671.618164</ele>
                <time>2010-11-21T11:50:27.000+01:00</time>
            </trkpt>
            <trkpt lat="39.431347" lon="-6.286879">
                <ele>673.060303</ele>
                <time>2010-11-21T11:51:37.000+01:00</time>
            </trkpt>
            <trkpt lat="39.431355" lon="-6.286880">
                <ele>670.656982</ele>
                <time>2010-11-21T11:51:46.000+01:00</time>
            </trkpt>
            <trkpt lat="39.431335" lon="-6.286847">
                <ele>670.656982</ele>
                <time>2010-11-21T11:52:08.000+01:00</time>
            </trkpt>
            <trkpt lat="39.431339" lon="-6.286874">
                <ele>667.292236</ele>
                <time>2010-11-21T11:52:20.000+01:00</time>
            </trkpt>
            <trkpt lat="39.431376" lon="-6.286858">
                <ele>667.292236</ele>
                <time>2010-11-21T11:52:36.000+01:00</time>
            </trkpt>
            <trkpt lat="39.431440" lon="-6.286933">
                <ele>663.927490</ele>
                <time>2010-11-21T11:52:51.000+01:00</time>
            </trkpt>
            <trkpt lat="39.431478" lon="-6.286962">
                <ele>661.043701</ele>
                <time>2010-11-21T11:52:57.000+01:00</time>
            </trkpt>
            <trkpt lat="39.431494" lon="-6.286922">
                <ele>658.159912</ele>
                <time>2010-11-21T11:53:09.000+01:00</time>
            </trkpt>
            <trkpt lat="39.431530" lon="-6.286855">
                <ele>656.237060</ele>
                <time>2010-11-21T11:53:22.000+01:00</time>
            </trkpt>
            <trkpt lat="39.431643" lon="-6.286857">
                <ele>655.275879</ele>
                <time>2010-11-21T11:53:38.000+01:00</time>
            </trkpt>
            <trkpt lat="39.431648" lon="-6.286858">
                <ele>653.353272</ele>
                <time>2010-11-21T11:53:54.000+01:00</time>
            </trkpt>
            <trkpt lat="39.431700" lon="-6.286871">
                <ele>653.833984</ele>
                <time>2010-11-21T11:54:07.000+01:00</time>
            </trkpt>
            <trkpt lat="39.431755" lon="-6.286886">
                <ele>653.353272</ele>
                <time>2010-11-21T11:54:18.000+01:00</time>
            </trkpt>
            <trkpt lat="39.431941" lon="-6.286962">
                <ele>653.833984</ele>
                <time>2010-11-21T11:54:39.000+01:00</time>
            </trkpt>
            <trkpt lat="39.431956" lon="-6.286985">
                <ele>652.872559</ele>
                <time>2010-11-21T11:54:52.000+01:00</time>
            </trkpt>
            <trkpt lat="39.431979" lon="-6.286977">
                <ele>651.430420</ele>
                <time>2010-11-21T11:55:11.000+01:00</time>
            </trkpt>
            <trkpt lat="39.431984" lon="-6.286944">
                <ele>652.872559</ele>
                <time>2010-11-21T11:56:02.000+01:00</time>
            </trkpt>
            <trkpt lat="39.431981" lon="-6.286949">
                <ele>652.872559</ele>
                <time>2010-11-21T12:01:05.000+01:00</time>
            </trkpt>
            <trkpt lat="39.431980" lon="-6.286951">
                <ele>652.872559</ele>
                <time>2010-11-21T12:03:08.000+01:00</time>
            </trkpt>
            <trkpt lat="39.431983" lon="-6.286960">
                <ele>653.833984</ele>
                <time>2010-11-21T12:06:38.000+01:00</time>
            </trkpt>
            <trkpt lat="39.431983" lon="-6.286961">
                <ele>652.391846</ele>
                <time>2010-11-21T12:07:41.000+01:00</time>
            </trkpt>
            <trkpt lat="39.431983" lon="-6.286961">
                <ele>656.237060</ele>
                <time>2010-11-21T12:07:57.000+01:00</time>
            </trkpt>
            <trkpt lat="39.431983" lon="-6.286961">
                <ele>652.872559</ele>
                <time>2010-11-21T12:07:58.000+01:00</time>
            </trkpt>
            <trkpt lat="39.431981" lon="-6.286965">
                <ele>654.314697</ele>
                <time>2010-11-21T12:09:18.000+01:00</time>
            </trkpt>
            <trkpt lat="39.431971" lon="-6.286975">
                <ele>653.353272</ele>
                <time>2010-11-21T12:13:04.000+01:00</time>
            </trkpt>
            <trkpt lat="39.431973" lon="-6.286935">
                <ele>653.833984</ele>
                <time>2010-11-21T12:13:28.000+01:00</time>
            </trkpt>
            <trkpt lat="39.431989" lon="-6.286933">
                <ele>652.872559</ele>
                <time>2010-11-21T12:14:07.000+01:00</time>
            </trkpt>
            <trkpt lat="39.431990" lon="-6.286943">
                <ele>653.353272</ele>
                <time>2010-11-21T12:14:50.000+01:00</time>
            </trkpt>
            <trkpt lat="39.431990" lon="-6.286960">
                <ele>653.833984</ele>
                <time>2010-11-21T12:15:04.000+01:00</time>
            </trkpt>
            <trkpt lat="39.431988" lon="-6.286919">
                <ele>653.353272</ele>
                <time>2010-11-21T12:15:15.000+01:00</time>
            </trkpt>
            <trkpt lat="39.432009" lon="-6.286963">
                <ele>654.795166</ele>
                <time>2010-11-21T12:15:28.000+01:00</time>
            </trkpt>
            <trkpt lat="39.432005" lon="-6.286962">
                <ele>654.314697</ele>
                <time>2010-11-21T12:15:46.000+01:00</time>
            </trkpt>
            <trkpt lat="39.432031" lon="-6.286969">
                <ele>653.353272</ele>
                <time>2010-11-21T12:16:51.000+01:00</time>
            </trkpt>
            <trkpt lat="39.432135" lon="-6.287052">
                <ele>652.391846</ele>
                <time>2010-11-21T12:17:09.000+01:00</time>
            </trkpt>
            <trkpt lat="39.432263" lon="-6.287166">
                <ele>652.872559</ele>
                <time>2010-11-21T12:17:28.000+01:00</time>
            </trkpt>
            <trkpt lat="39.432284" lon="-6.287194">
                <ele>651.911133</ele>
                <time>2010-11-21T12:17:31.000+01:00</time>
            </trkpt>
            <trkpt lat="39.432291" lon="-6.287204">
                <ele>651.430420</ele>
                <time>2010-11-21T12:17:32.000+01:00</time>
            </trkpt>
            <trkpt lat="39.432414" lon="-6.287368">
                <ele>648.546387</ele>
                <time>2010-11-21T12:17:50.000+01:00</time>
            </trkpt>
            <trkpt lat="39.432479" lon="-6.287480">
                <ele>646.143310</ele>
                <time>2010-11-21T12:18:01.000+01:00</time>
            </trkpt>
            <trkpt lat="39.432625" lon="-6.287611">
                <ele>644.701172</ele>
                <time>2010-11-21T12:18:22.000+01:00</time>
            </trkpt>
            <trkpt lat="39.432711" lon="-6.287677">
                <ele>641.817383</ele>
                <time>2010-11-21T12:18:34.000+01:00</time>
            </trkpt>
            <trkpt lat="39.432852" lon="-6.287763">
                <ele>638.452881</ele>
                <time>2010-11-21T12:18:51.000+01:00</time>
            </trkpt>
            <trkpt lat="39.433094" lon="-6.287781">
                <ele>637.491455</ele>
                <time>2010-11-21T12:19:14.000+01:00</time>
            </trkpt>
            <trkpt lat="39.433305" lon="-6.288035">
                <ele>634.607422</ele>
                <time>2010-11-21T12:19:39.000+01:00</time>
            </trkpt>
            <trkpt lat="39.433483" lon="-6.288204">
                <ele>631.242920</ele>
                <time>2010-11-21T12:19:59.000+01:00</time>
            </trkpt>
            <trkpt lat="39.433536" lon="-6.288236">
                <ele>629.800781</ele>
                <time>2010-11-21T12:20:04.000+01:00</time>
            </trkpt>
            <trkpt lat="39.433730" lon="-6.288347">
                <ele>626.916992</ele>
                <time>2010-11-21T12:20:22.000+01:00</time>
            </trkpt>
            <trkpt lat="39.434151" lon="-6.288599">
                <ele>625.955566</ele>
                <time>2010-11-21T12:20:59.000+01:00</time>
            </trkpt>
            <trkpt lat="39.434429" lon="-6.288896">
                <ele>626.916992</ele>
                <time>2010-11-21T12:21:28.000+01:00</time>
            </trkpt>
            <trkpt lat="39.434595" lon="-6.289245">
                <ele>627.878174</ele>
                <time>2010-11-21T12:21:53.000+01:00</time>
            </trkpt>
            <trkpt lat="39.434750" lon="-6.289643">
                <ele>625.955566</ele>
                <time>2010-11-21T12:22:20.000+01:00</time>
            </trkpt>
            <trkpt lat="39.434856" lon="-6.289883">
                <ele>622.110352</ele>
                <time>2010-11-21T12:22:39.000+01:00</time>
            </trkpt>
            <trkpt lat="39.434943" lon="-6.289920">
                <ele>620.668457</ele>
                <time>2010-11-21T12:22:48.000+01:00</time>
            </trkpt>
            <trkpt lat="39.434970" lon="-6.289909">
                <ele>620.187744</ele>
                <time>2010-11-21T12:22:51.000+01:00</time>
            </trkpt>
            <trkpt lat="39.435009" lon="-6.289845">
                <ele>617.303711</ele>
                <time>2010-11-21T12:22:57.000+01:00</time>
            </trkpt>
            <trkpt lat="39.435016" lon="-6.289831">
                <ele>617.784180</ele>
                <time>2010-11-21T12:22:58.000+01:00</time>
            </trkpt>
            <trkpt lat="39.435164" lon="-6.289678">
                <ele>614.900391</ele>
                <time>2010-11-21T12:23:15.000+01:00</time>
            </trkpt>
            <trkpt lat="39.435253" lon="-6.289697">
                <ele>612.497070</ele>
                <time>2010-11-21T12:23:22.000+01:00</time>
            </trkpt>
            <trkpt lat="39.435427" lon="-6.289922">
                <ele>609.132568</ele>
                <time>2010-11-21T12:23:43.000+01:00</time>
            </trkpt>
            <trkpt lat="39.435517" lon="-6.290056">
                <ele>605.768066</ele>
                <time>2010-11-21T12:23:55.000+01:00</time>
            </trkpt>
            <trkpt lat="39.435653" lon="-6.290258">
                <ele>602.883789</ele>
                <time>2010-11-21T12:24:14.000+01:00</time>
            </trkpt>
            <trkpt lat="39.435705" lon="-6.290338">
                <ele>601.922607</ele>
                <time>2010-11-21T12:24:21.000+01:00</time>
            </trkpt>
            <trkpt lat="39.435823" lon="-6.290516">
                <ele>599.038574</ele>
                <time>2010-11-21T12:24:37.000+01:00</time>
            </trkpt>
            <trkpt lat="39.435910" lon="-6.290633">
                <ele>597.115967</ele>
                <time>2010-11-21T12:24:48.000+01:00</time>
            </trkpt>
            <trkpt lat="39.436003" lon="-6.290706">
                <ele>594.712647</ele>
                <time>2010-11-21T12:24:58.000+01:00</time>
            </trkpt>
            <trkpt lat="39.436155" lon="-6.290680">
                <ele>591.348144</ele>
                <time>2010-11-21T12:25:14.000+01:00</time>
            </trkpt>
            <trkpt lat="39.436168" lon="-6.290665">
                <ele>590.867432</ele>
                <time>2010-11-21T12:25:16.000+01:00</time>
            </trkpt>
            <trkpt lat="39.436188" lon="-6.290353">
                <ele>588.464356</ele>
                <time>2010-11-21T12:25:39.000+01:00</time>
            </trkpt>
            <trkpt lat="39.436161" lon="-6.289930">
                <ele>587.502685</ele>
                <time>2010-11-21T12:26:06.000+01:00</time>
            </trkpt>
            <trkpt lat="39.436115" lon="-6.289460">
                <ele>586.060791</ele>
                <time>2010-11-21T12:26:37.000+01:00</time>
            </trkpt>
            <trkpt lat="39.436084" lon="-6.289017">
                <ele>582.696289</ele>
                <time>2010-11-21T12:27:05.000+01:00</time>
            </trkpt>
            <trkpt lat="39.436050" lon="-6.288580">
                <ele>579.812256</ele>
                <time>2010-11-21T12:27:33.000+01:00</time>
            </trkpt>
            <trkpt lat="39.436016" lon="-6.288243">
                <ele>576.447754</ele>
                <time>2010-11-21T12:27:55.000+01:00</time>
            </trkpt>
            <trkpt lat="39.436046" lon="-6.287940">
                <ele>573.563965</ele>
                <time>2010-11-21T12:28:16.000+01:00</time>
            </trkpt>
            <trkpt lat="39.436287" lon="-6.287963">
                <ele>570.198975</ele>
                <time>2010-11-21T12:28:36.000+01:00</time>
            </trkpt>
            <trkpt lat="39.436448" lon="-6.288064">
                <ele>567.315185</ele>
                <time>2010-11-21T12:28:50.000+01:00</time>
            </trkpt>
            <trkpt lat="39.436659" lon="-6.288195">
                <ele>564.431152</ele>
                <time>2010-11-21T12:29:09.000+01:00</time>
            </trkpt>
            <trkpt lat="39.436832" lon="-6.288301">
                <ele>561.066650</ele>
                <time>2010-11-21T12:29:24.000+01:00</time>
            </trkpt>
            <trkpt lat="39.436966" lon="-6.288380">
                <ele>558.663330</ele>
                <time>2010-11-21T12:29:36.000+01:00</time>
            </trkpt>
            <trkpt lat="39.437138" lon="-6.288436">
                <ele>555.298584</ele>
                <time>2010-11-21T12:29:51.000+01:00</time>
            </trkpt>
            <trkpt lat="39.437238" lon="-6.288387">
                <ele>552.414551</ele>
                <time>2010-11-21T12:30:01.000+01:00</time>
            </trkpt>
            <trkpt lat="39.437463" lon="-6.288209">
                <ele>548.569336</ele>
                <time>2010-11-21T12:30:23.000+01:00</time>
            </trkpt>
            <trkpt lat="39.437692" lon="-6.288020">
                <ele>545.685547</ele>
                <time>2010-11-21T12:30:44.000+01:00</time>
            </trkpt>
            <trkpt lat="39.438002" lon="-6.287699">
                <ele>543.282104</ele>
                <time>2010-11-21T12:31:15.000+01:00</time>
            </trkpt>
            <trkpt lat="39.438094" lon="-6.287349">
                <ele>539.917603</ele>
                <time>2010-11-21T12:31:37.000+01:00</time>
            </trkpt>
            <trkpt lat="39.438178" lon="-6.286995">
                <ele>537.033691</ele>
                <time>2010-11-21T12:32:00.000+01:00</time>
            </trkpt>
            <trkpt lat="39.438358" lon="-6.286788">
                <ele>533.668945</ele>
                <time>2010-11-21T12:32:20.000+01:00</time>
            </trkpt>
            <trkpt lat="39.438618" lon="-6.286596">
                <ele>530.785156</ele>
                <time>2010-11-21T12:32:46.000+01:00</time>
            </trkpt>
            <trkpt lat="39.438632" lon="-6.286552">
                <ele>529.823731</ele>
                <time>2010-11-21T12:32:50.000+01:00</time>
            </trkpt>
            <trkpt lat="39.438505" lon="-6.286378">
                <ele>526.459106</ele>
                <time>2010-11-21T12:33:07.000+01:00</time>
            </trkpt>
            <trkpt lat="39.438365" lon="-6.286206">
                <ele>523.094604</ele>
                <time>2010-11-21T12:33:24.000+01:00</time>
            </trkpt>
            <trkpt lat="39.438209" lon="-6.286018">
                <ele>520.210571</ele>
                <time>2010-11-21T12:33:43.000+01:00</time>
            </trkpt>
            <trkpt lat="39.438055" lon="-6.285856">
                <ele>516.845947</ele>
                <time>2010-11-21T12:34:00.000+01:00</time>
            </trkpt>
            <trkpt lat="39.437905" lon="-6.285641">
                <ele>514.442627</ele>
                <time>2010-11-21T12:34:20.000+01:00</time>
            </trkpt>
            <trkpt lat="39.437891" lon="-6.285606">
                <ele>513.962036</ele>
                <time>2010-11-21T12:34:23.000+01:00</time>
            </trkpt>
            <trkpt lat="39.437812" lon="-6.285408">
                <ele>511.078003</ele>
                <time>2010-11-21T12:34:39.000+01:00</time>
            </trkpt>
            <trkpt lat="39.437697" lon="-6.285146">
                <ele>509.636108</ele>
                <time>2010-11-21T12:34:59.000+01:00</time>
            </trkpt>
            <trkpt lat="39.437626" lon="-6.284999">
                <ele>507.713501</ele>
                <time>2010-11-21T12:35:12.000+01:00</time>
            </trkpt>
            <trkpt lat="39.437426" lon="-6.284853">
                <ele>504.348877</ele>
                <time>2010-11-21T12:35:36.000+01:00</time>
            </trkpt>
            <trkpt lat="39.437253" lon="-6.284753">
                <ele>500.984131</ele>
                <time>2010-11-21T12:35:53.000+01:00</time>
            </trkpt>
            <trkpt lat="39.437224" lon="-6.284735">
                <ele>500.503540</ele>
                <time>2010-11-21T12:35:56.000+01:00</time>
            </trkpt>
            <trkpt lat="39.437036" lon="-6.284602">
                <ele>497.138916</ele>
                <time>2010-11-21T12:36:15.000+01:00</time>
            </trkpt>
            <trkpt lat="39.436815" lon="-6.284413">
                <ele>494.735596</ele>
                <time>2010-11-21T12:36:37.000+01:00</time>
            </trkpt>
            <trkpt lat="39.436629" lon="-6.284185">
                <ele>491.370972</ele>
                <time>2010-11-21T12:36:59.000+01:00</time>
            </trkpt>
            <trkpt lat="39.436569" lon="-6.284080">
                <ele>490.409790</ele>
                <time>2010-11-21T12:37:13.000+01:00</time>
            </trkpt>
            <trkpt lat="39.436524" lon="-6.284004">
                <ele>489.448364</ele>
                <time>2010-11-21T12:37:25.000+01:00</time>
            </trkpt>
            <trkpt lat="39.436503" lon="-6.283952">
                <ele>488.967773</ele>
                <time>2010-11-21T12:37:35.000+01:00</time>
            </trkpt>
            <trkpt lat="39.436403" lon="-6.283700">
                <ele>487.525635</ele>
                <time>2010-11-21T12:37:59.000+01:00</time>
            </trkpt>
            <trkpt lat="39.436376" lon="-6.283631">
                <ele>486.083740</ele>
                <time>2010-11-21T12:38:13.000+01:00</time>
            </trkpt>
            <trkpt lat="39.436220" lon="-6.283409">
                <ele>484.161133</ele>
                <time>2010-11-21T12:38:35.000+01:00</time>
            </trkpt>
            <trkpt lat="39.436110" lon="-6.283159">
                <ele>480.315918</ele>
                <time>2010-11-21T12:38:54.000+01:00</time>
            </trkpt>
            <trkpt lat="39.435956" lon="-6.282830">
                <ele>479.354492</ele>
                <time>2010-11-21T12:39:20.000+01:00</time>
            </trkpt>
            <trkpt lat="39.435809" lon="-6.282529">
                <ele>476.951294</ele>
                <time>2010-11-21T12:39:43.000+01:00</time>
            </trkpt>
            <trkpt lat="39.435642" lon="-6.282266">
                <ele>474.547974</ele>
                <time>2010-11-21T12:40:05.000+01:00</time>
            </trkpt>
            <trkpt lat="39.435495" lon="-6.282012">
                <ele>473.586670</ele>
                <time>2010-11-21T12:40:26.000+01:00</time>
            </trkpt>
            <trkpt lat="39.435369" lon="-6.281809">
                <ele>471.183350</ele>
                <time>2010-11-21T12:40:43.000+01:00</time>
            </trkpt>
            <trkpt lat="39.435228" lon="-6.281512">
                <ele>469.741333</ele>
                <time>2010-11-21T12:41:06.000+01:00</time>
            </trkpt>
            <trkpt lat="39.435067" lon="-6.281137">
                <ele>468.299316</ele>
                <time>2010-11-21T12:41:34.000+01:00</time>
            </trkpt>
            <trkpt lat="39.434924" lon="-6.280762">
                <ele>465.896118</ele>
                <time>2010-11-21T12:42:01.000+01:00</time>
            </trkpt>
            <trkpt lat="39.434799" lon="-6.280412">
                <ele>463.973389</ele>
                <time>2010-11-21T12:42:26.000+01:00</time>
            </trkpt>
            <trkpt lat="39.434779" lon="-6.280357">
                <ele>464.454102</ele>
                <time>2010-11-21T12:42:30.000+01:00</time>
            </trkpt>
            <trkpt lat="39.434681" lon="-6.280017">
                <ele>460.608765</ele>
                <time>2010-11-21T12:42:53.000+01:00</time>
            </trkpt>
            <trkpt lat="39.434655" lon="-6.279572">
                <ele>459.166870</ele>
                <time>2010-11-21T12:43:22.000+01:00</time>
            </trkpt>
            <trkpt lat="39.434682" lon="-6.279358">
                <ele>457.244263</ele>
                <time>2010-11-21T12:43:37.000+01:00</time>
            </trkpt>
            <trkpt lat="39.434734" lon="-6.279002">
                <ele>453.879639</ele>
                <time>2010-11-21T12:44:01.000+01:00</time>
            </trkpt>
            <trkpt lat="39.434730" lon="-6.278730">
                <ele>450.034424</ele>
                <time>2010-11-21T12:44:20.000+01:00</time>
            </trkpt>
            <trkpt lat="39.434714" lon="-6.278609">
                <ele>450.034424</ele>
                <time>2010-11-21T12:44:29.000+01:00</time>
            </trkpt>
            <trkpt lat="39.434649" lon="-6.278588">
                <ele>450.995606</ele>
                <time>2010-11-21T12:44:44.000+01:00</time>
            </trkpt>
            <trkpt lat="39.434686" lon="-6.278577">
                <ele>450.995606</ele>
                <time>2010-11-21T12:45:00.000+01:00</time>
            </trkpt>
            <trkpt lat="39.434722" lon="-6.278483">
                <ele>450.034424</ele>
                <time>2010-11-21T12:45:17.000+01:00</time>
            </trkpt>
            <trkpt lat="39.434677" lon="-6.278454">
                <ele>449.553711</ele>
                <time>2010-11-21T12:45:28.000+01:00</time>
            </trkpt>
            <trkpt lat="39.434599" lon="-6.278220">
                <ele>448.111816</ele>
                <time>2010-11-21T12:45:47.000+01:00</time>
            </trkpt>
            <trkpt lat="39.434597" lon="-6.277874">
                <ele>446.669678</ele>
                <time>2010-11-21T12:46:10.000+01:00</time>
            </trkpt>
            <trkpt lat="39.434651" lon="-6.277724">
                <ele>446.189087</ele>
                <time>2010-11-21T12:46:22.000+01:00</time>
            </trkpt>
            <trkpt lat="39.434773" lon="-6.277483">
                <ele>444.747070</ele>
                <time>2010-11-21T12:46:43.000+01:00</time>
            </trkpt>
            <trkpt lat="39.434850" lon="-6.277221">
                <ele>444.266480</ele>
                <time>2010-11-21T12:47:04.000+01:00</time>
            </trkpt>
            <trkpt lat="39.435018" lon="-6.276910">
                <ele>441.382446</ele>
                <time>2010-11-21T12:47:30.000+01:00</time>
            </trkpt>
            <trkpt lat="39.435246" lon="-6.276578">
                <ele>439.459717</ele>
                <time>2010-11-21T12:47:59.000+01:00</time>
            </trkpt>
            <trkpt lat="39.435428" lon="-6.276336">
                <ele>438.498535</ele>
                <time>2010-11-21T12:48:22.000+01:00</time>
            </trkpt>
            <trkpt lat="39.435691" lon="-6.276177">
                <ele>436.575928</ele>
                <time>2010-11-21T12:48:49.000+01:00</time>
            </trkpt>
            <trkpt lat="39.435713" lon="-6.276160">
                <ele>436.575928</ele>
                <time>2010-11-21T12:48:51.000+01:00</time>
            </trkpt>
            <trkpt lat="39.435880" lon="-6.276088">
                <ele>435.614502</ele>
                <time>2010-11-21T12:49:08.000+01:00</time>
            </trkpt>
            <trkpt lat="39.435932" lon="-6.276070">
                <ele>435.133911</ele>
                <time>2010-11-21T12:49:11.000+01:00</time>
            </trkpt>
            <trkpt lat="39.436218" lon="-6.275944">
                <ele>435.614502</ele>
                <time>2010-11-21T12:49:31.000+01:00</time>
            </trkpt>
            <trkpt lat="39.436493" lon="-6.275808">
                <ele>434.653320</ele>
                <time>2010-11-21T12:49:55.000+01:00</time>
            </trkpt>
            <trkpt lat="39.436495" lon="-6.275451">
                <ele>433.211304</ele>
                <time>2010-11-21T12:50:19.000+01:00</time>
            </trkpt>
            <trkpt lat="39.436510" lon="-6.275388">
                <ele>434.172607</ele>
                <time>2010-11-21T12:50:27.000+01:00</time>
            </trkpt>
            <trkpt lat="39.436637" lon="-6.275396">
                <ele>434.172607</ele>
                <time>2010-11-21T12:50:38.000+01:00</time>
            </trkpt>
            <trkpt lat="39.436931" lon="-6.275298">
                <ele>434.653320</ele>
                <time>2010-11-21T12:51:01.000+01:00</time>
            </trkpt>
            <trkpt lat="39.436944" lon="-6.274881">
                <ele>433.691894</ele>
                <time>2010-11-21T12:51:28.000+01:00</time>
            </trkpt>
            <trkpt lat="39.437068" lon="-6.274730">
                <ele>434.172607</ele>
                <time>2010-11-21T12:51:44.000+01:00</time>
            </trkpt>
            <trkpt lat="39.437243" lon="-6.274433">
                <ele>433.211304</ele>
                <time>2010-11-21T12:52:09.000+01:00</time>
            </trkpt>
            <trkpt lat="39.437272" lon="-6.274310">
                <ele>433.211304</ele>
                <time>2010-11-21T12:52:29.000+01:00</time>
            </trkpt>
            <trkpt lat="39.437270" lon="-6.274255">
                <ele>432.730713</ele>
                <time>2010-11-21T12:52:55.000+01:00</time>
            </trkpt>
            <trkpt lat="39.437285" lon="-6.274219">
                <ele>433.211304</ele>
                <time>2010-11-21T12:53:09.000+01:00</time>
            </trkpt>
            <trkpt lat="39.437285" lon="-6.274207">
                <ele>434.172607</ele>
                <time>2010-11-21T12:53:12.000+01:00</time>
            </trkpt>
        </trkseg>
    </trk>
</gpx>